Terminal Aerodrome Forecast
Issued by NWS Grand Forks, ND

Home | Current Version | Previous Version | Text Only | Print | Product List | Glossary Off
Versions: 1 2 3 4 5 6 7 8 9 10 11 12 13 14 15 16 17 18 19 20 21 22 23

000
FTUS43 KFGF 261139 AAA
TAFFAR
TAF AMD
KFAR 261139Z 2612/2712 23008KT P6SM SCT250
     FM261600 26013KT P6SM SCT050
     FM270200 27009KT P6SM SCT250
     FM270400 26005KT P6SM SCT250=

USA.gov is the U.S. government's official web portal to all federal, state and local government web resources and services.